sim
Sign-in with your pilot id or email,
or register
Callsign
Passwort

Schedule Details

Flight Number: RYR5041 (1)
Departure: Leeds Bradford Airport (EGNM) at 06:05
Arrival: Bratislava M. R. Stefanik Airport (LZIB) at 08:30
Route: Ryanair Passenger Schedule. Enter filed route here before submitting Pirep.

Weather Information
Getting current METAR information for EGNM 231950Z 17007KT 9999 FEW024 08/07 Q1007
Getting current METAR information for LZIB 232000Z 05007KT CAVOK 13/10 Q1017

Schedule Frequency

Route Map